Time;durP1;ratioP1;P1;durP2;ratioP2;P2;SDS_P1;SDS_P2;PMS_P1;PMS_P2;Temp;Humidity;BMP_temperature;BMP_pressure;BME280_temperature;BME280_humidity;BME280_pressure;Samples;Min_cycle;Max_cycle;Signal;HPM_P1;HPM_P2
2022/05/20 00:03:20;;;;;;;9.60;1.60;;;;;;;16.68;34.30;98981.67;432887;1270;111217;-42
2022/05/20 00:13:29;;;;;;;32.70;3.70;;;;;;;16.61;34.48;98977.89;432788;1271;108880;-45
2022/05/20 00:23:36;;;;;;;6.70;1.70;;;;;;;16.51;34.62;98972.77;432976;1270;96703;-42
2022/05/20 00:33:44;;;;;;;5.00;1.40;;;;;;;16.43;34.84;98963.80;432671;1270;111132;-44
2022/05/20 00:43:53;;;;;;;8.70;1.80;;;;;;;16.35;34.94;98952.88;432800;1270;108928;-43
2022/05/20 00:53:58;;;;;;;5.40;1.80;;;;;;;16.28;35.21;98948.71;432942;1271;97905;-47
2022/05/20 01:04:06;;;;;;;1.80;1.60;;;;;;;16.19;35.44;98938.54;432792;1271;108860;-44
2022/05/20 01:14:19;;;;;;;8.50;1.50;;;;;;;16.11;35.65;98940.36;433556;1260;97948;-47
2022/05/20 01:24:27;;;;;;;5.00;1.50;;;;;;;16.04;35.74;98942.86;432863;1269;111078;-43
2022/05/20 01:34:34;;;;;;;3.70;1.80;;;;;;;15.99;36.03;98930.67;432772;1269;109131;-48
2022/05/20 01:44:43;;;;;;;4.40;1.50;;;;;;;15.97;36.17;98926.23;432678;1269;97923;-44
2022/05/20 01:54:51;;;;;;;4.30;1.50;;;;;;;15.95;36.26;98917.70;432764;1269;111229;-42
2022/05/20 02:04:56;;;;;;;3.30;1.30;;;;;;;15.94;36.27;98928.10;432721;1269;108831;-43
2022/05/20 02:15:09;;;;;;;6.70;1.60;;;;;;;15.87;36.45;98919.84;432740;1269;97910;-44
2022/05/20 02:25:20;;;;;;;7.00;1.30;;;;;;;15.80;36.68;98907.08;432765;1269;108171;-43
2022/05/20 02:35:27;;;;;;;3.00;1.80;;;;;;;15.74;36.91;98911.16;432752;1269;97830;-42
2022/05/20 02:45:34;;;;;;;;;;;;;;;15.66;37.16;98894.31;432861;1269;111578;-42
2022/05/20 02:55:42;;;;;;;7.50;1.40;;;;;;;15.59;37.22;98895.02;432710;1269;108645;-47
2022/05/20 03:05:49;;;;;;;9.20;1.50;;;;;;;15.58;37.52;98894.39;432547;1271;97664;-48
2022/05/20 03:15:55;;;;;;;9.00;1.70;;;;;;;15.62;37.79;98893.27;432888;1269;108927;-42
2022/05/20 03:26:03;;;;;;;4.60;1.50;;;;;;;15.78;37.80;98899.83;432880;1271;97880;-46
2022/05/20 03:36:12;;;;;;;8.30;1.60;;;;;;;16.02;37.81;98896.55;432735;1270;111205;-45
2022/05/20 03:46:24;;;;;;;5.40;1.90;;;;;;;16.86;37.72;98896.70;432597;1271;108825;-46
2022/05/20 03:56:32;;;;;;;5.40;1.90;;;;;;;17.83;36.97;98901.64;432763;1269;97910;-43
2022/05/20 04:06:40;;;;;;;6.50;1.60;;;;;;;17.76;36.83;98903.14;432598;1270;107994;-45
2022/05/20 04:16:48;;;;;;;8.50;1.70;;;;;;;17.57;36.91;98896.30;432677;1271;96695;-47
2022/05/20 04:26:55;;;;;;;2.30;2.10;;;;;;;17.77;37.07;98891.59;432649;1270;111111;-48
2022/05/20 04:37:03;;;;;;;11.20;1.80;;;;;;;17.77;37.21;98900.47;432682;1269;108866;-46
2022/05/20 04:47:12;;;;;;;6.60;1.60;;;;;;;17.55;37.32;98904.42;432592;1271;97917;-43
2022/05/20 04:57:37;;;;;;;12.00;2.10;;;;;;;17.48;37.84;98905.74;432636;1269;111149;-43
2022/05/20 05:28:19;;;;;;;8.60;3.00;;;;;;;17.98;38.53;98924.72;432639;1269;111083;-47
2022/05/20 05:38:26;;;;;;;8.00;2.90;;;;;;;18.35;38.58;98924.95;432627;1269;107591;-49
2022/05/20 05:48:33;;;;;;;14.10;2.50;;;;;;;18.61;38.79;98935.70;432636;1269;97530;-42
2022/05/20 05:58:40;;;;;;;4.50;1.80;;;;;;;18.69;39.19;98938.61;432531;1269;111125;-47
2022/05/20 06:08:48;;;;;;;5.30;2.00;;;;;;;18.90;39.57;98948.32;432561;1269;108737;-45
2022/05/20 06:18:55;;;;;;;3.30;2.00;;;;;;;19.32;39.72;98951.28;432656;1269;97958;-47
2022/05/20 06:49:34;;;;;;;4.30;2.00;;;;;;;19.50;41.43;98961.68;432643;1269;96826;-45
2022/05/20 06:59:41;;;;;;;10.70;2.50;;;;;;;19.21;41.79;98970.28;432661;1269;108863;-42
2022/05/20 07:09:48;;;;;;;6.40;2.50;;;;;;;18.93;42.64;98981.70;432622;1269;97922;-47
2022/05/20 07:19:56;;;;;;;4.50;2.40;;;;;;;18.68;43.52;98987.36;432716;1269;111089;-44
2022/05/20 07:30:04;;;;;;;10.10;2.50;;;;;;;18.56;44.19;98989.69;432548;1269;108426;-46
2022/05/20 07:40:12;;;;;;;11.50;3.00;;;;;;;18.46;44.76;98994.21;432554;1269;97918;-42
2022/05/20 07:50:20;;;;;;;9.20;3.70;;;;;;;18.37;45.39;98993.74;432638;1269;110992;-43
2022/05/20 08:00:28;;;;;;;9.10;3.80;;;;;;;18.47;46.06;98985.27;432611;1269;107763;-45
2022/05/20 08:10:38;;;;;;;6.60;3.30;;;;;;;18.98;46.34;98979.84;432528;1269;97940;-47
2022/05/20 08:20:46;;;;;;;7.80;3.00;;;;;;;19.72;46.69;98983.41;432605;1269;111653;-46
2022/05/20 08:30:53;;;;;;;13.90;3.50;;;;;;;20.25;46.58;98981.48;432496;1269;108821;-42
2022/05/20 08:41:02;;;;;;;5.30;3.00;;;;;;;20.94;46.70;98981.86;432542;1269;97514;-46
2022/05/20 08:51:08;;;;;;;;;;;;;;;22.58;46.82;98959.30;432520;1269;109768;-44
2022/05/20 09:01:15;;;;;;;7.20;2.60;;;;;;;23.96;45.95;98950.63;432653;1269;108860;-42
2022/05/20 09:21:39;;;;;;;7.70;2.10;;;;;;;25.65;43.97;98923.42;432605;1269;110837;-47
2022/05/20 09:31:49;;;;;;;21.90;3.10;;;;;;;26.50;43.00;98911.86;432526;1269;108826;-46
2022/05/20 09:42:01;;;;;;;7.10;1.60;;;;;;;26.98;41.49;98909.08;432656;1269;97935;-46
2022/05/20 09:52:15;;;;;;;2.50;1.80;;;;;;;27.39;40.70;98907.92;432729;1271;110193;-46
2022/05/20 10:02:22;;;;;;;18.00;2.50;;;;;;;27.79;39.65;98896.45;432639;1269;108317;-43
2022/05/20 10:12:28;;;;;;;2.10;1.50;;;;;;;27.99;38.67;98890.00;432735;1269;97533;-46
2022/05/20 10:22:33;;;;;;;;;;;;;;;27.90;38.01;98880.23;432791;1269;111153;-44
2022/05/20 10:32:49;;;;;;;4.90;2.00;;;;;;;28.13;37.77;98873.84;432530;1269;109359;-47
2022/05/20 10:42:59;;;;;;;4.80;2.00;;;;;;;28.30;37.46;98864.30;432251;1269;440368;-47
2022/05/20 10:53:10;;;;;;;2.70;1.90;;;;;;;28.36;37.59;98859.69;432721;1269;110676;-47
2022/05/20 11:03:37;;;;;;;1.90;1.80;;;;;;;28.37;37.52;98847.81;432613;1269;108374;-48
2022/05/20 11:14:03;;;;;;;6.30;1.80;;;;;;;28.34;37.71;98833.86;432871;1269;97951;-47
2022/05/20 11:24:43;;;;;;;5.20;1.80;;;;;;;28.91;37.19;98818.63;432524;1269;107842;-43
2022/05/20 11:35:12;;;;;;;6.60;2.10;;;;;;;29.13;36.60;98816.75;432791;1269;97826;-43
2022/05/20 11:45:21;;;;;;;8.40;2.10;;;;;;;29.23;36.43;98816.86;432561;1269;108820;-48
2022/05/20 11:55:33;;;;;;;7.70;1.90;;;;;;;28.98;36.34;98812.77;432516;1269;108819;-44
2022/05/20 12:05:45;;;;;;;3.20;2.50;;;;;;;28.64;36.71;98803.23;432734;1269;96674;-43
2022/05/20 12:15:50;;;;;;;40.10;4.50;;;;;;;28.74;37.05;98797.30;432710;1269;108865;-49
2022/05/20 12:26:20;;;;;;;6.80;2.80;;;;;;;29.04;36.82;98801.02;432561;1271;97877;-43
2022/05/20 12:36:34;;;;;;;6.20;1.90;;;;;;;29.16;36.27;98788.61;432782;1269;111056;-48
2022/05/20 12:47:02;;;;;;;11.70;1.90;;;;;;;29.03;36.10;98785.21;432468;1269;108252;-48
2022/05/20 12:57:14;;;;;;;5.70;2.70;;;;;;;28.89;36.21;98774.89;432683;1269;97468;-42
2022/05/20 13:07:20;;;;;;;2.40;1.50;;;;;;;28.57;36.80;98763.09;432640;1269;97935;-44
2022/05/20 13:17:30;;;;;;;6.10;2.40;;;;;;;28.54;37.01;98752.03;432419;1271;108625;-47
2022/05/20 13:27:45;;;;;;;6.30;1.50;;;;;;;28.71;37.02;98739.90;432674;1269;96692;-42
2022/05/20 13:37:52;;;;;;;7.40;2.40;;;;;;;28.33;36.79;98743.41;432561;1271;110756;-47
2022/05/20 13:58:25;;;;;;;3.80;1.60;;;;;;;28.40;37.33;98715.02;432560;1269;96698;-41
2022/05/20 14:08:39;;;;;;;8.40;2.00;;;;;;;28.51;37.32;98706.23;432785;1269;111294;-47
2022/05/20 14:18:54;;;;;;;6.80;1.90;;;;;;;28.30;37.50;98690.26;432711;1269;109049;-45
2022/05/20 14:29:04;;;;;;;5.20;2.90;;;;;;;27.89;37.74;98683.61;432633;1269;97491;-48
2022/05/20 14:39:13;;;;;;;5.60;2.10;;;;;;;27.67;38.05;98681.36;432676;1269;111046;-46
2022/05/20 14:59:35;;;;;;;6.40;2.80;;;;;;;27.15;38.91;98670.30;432700;1269;97528;-46
2022/05/20 15:09:43;;;;;;;7.00;1.90;;;;;;;26.93;39.42;98649.47;432655;1269;111144;-47
2022/05/20 15:19:50;;;;;;;5.80;2.60;;;;;;;26.91;39.40;98647.88;432617;1268;109081;-45
2022/05/20 15:29:56;;;;;;;;;;;;;;;27.08;39.21;98642.32;432530;1269;97975;-47
2022/05/20 15:40:03;;;;;;;7.10;2.50;;;;;;;27.06;38.99;98628.36;432679;1269;111117;-43
2022/05/20 16:10:20;;;;;;;10.70;2.50;;;;;;;26.52;39.34;98593.07;432736;1269;110008;-43
2022/05/20 16:20:30;;;;;;;4.70;1.90;;;;;;;26.42;39.89;98583.16;432548;1269;97786;-44
2022/05/20 16:30:37;;;;;;;27.90;3.50;;;;;;;26.36;39.77;98572.18;432635;1269;97797;-43
2022/05/20 16:40:44;;;;;;;4.20;2.20;;;;;;;26.22;40.11;98553.04;432675;1269;110164;-48
2022/05/20 16:50:52;;;;;;;4.10;2.30;;;;;;;26.11;40.54;98544.83;432674;1269;109082;-48
2022/05/20 17:11:25;;;;;;;4.30;2.30;;;;;;;25.86;41.05;98534.89;432628;1269;111055;-43
2022/05/20 17:32:08;;;;;;;11.60;3.80;;;;;;;25.43;42.33;98518.27;432779;1269;97994;-42
2022/05/20 17:42:15;;;;;;;16.00;4.10;;;;;;;25.13;42.78;98514.48;432585;1269;110983;-43
2022/05/20 17:52:23;;;;;;;9.10;3.80;;;;;;;24.76;43.66;98498.34;432699;1269;108945;-47
2022/05/20 18:02:31;;;;;;;9.40;4.30;;;;;;;24.50;44.56;98492.56;432605;1269;97932;-42
2022/05/20 18:12:39;;;;;;;9.30;4.80;;;;;;;24.13;44.96;98475.75;432471;1269;111043;-43
2022/05/20 18:22:50;;;;;;;14.80;4.80;;;;;;;23.64;45.86;98457.50;432615;1269;108844;-45
2022/05/20 18:32:58;;;;;;;115.00;10.60;;;;;;;23.14;47.10;98453.73;432618;1269;97908;-46
2022/05/20 18:43:05;;;;;;;14.50;6.80;;;;;;;22.66;48.26;98445.09;432623;1269;111029;-45
2022/05/20 19:13:48;;;;;;;41.40;9.10;;;;;;;21.19;51.23;98401.58;432656;1269;111227;-48
2022/05/20 19:23:55;;;;;;;13.40;8.60;;;;;;;20.98;51.76;98377.59;432547;1269;109110;-42
2022/05/20 19:34:03;;;;;;;14.20;9.20;;;;;;;20.79;52.70;98356.08;432653;1269;97884;-46
2022/05/20 19:44:17;;;;;;;17.80;11.20;;;;;;;20.58;53.18;98339.92;432490;1269;111118;-47
2022/05/20 19:54:24;;;;;;;25.20;13.80;;;;;;;20.37;53.65;98327.64;432723;1269;108916;-47
2022/05/20 20:04:52;;;;;;;25.40;13.70;;;;;;;20.27;54.40;98310.59;432709;1269;97900;-47
2022/05/20 20:14:59;;;;;;;16.80;12.30;;;;;;;20.34;54.65;98302.13;432577;1269;109224;-46
2022/05/20 20:35:32;;;;;;;41.50;20.20;;;;;;;20.35;55.27;98296.46;432736;1269;111021;-45
2022/05/20 20:45:40;;;;;;;37.90;21.70;;;;;;;20.32;55.62;98293.04;432604;1269;108790;-46
2022/05/20 20:55:47;;;;;;;28.50;17.10;;;;;;;20.20;55.87;98281.37;432703;1269;97946;-47
2022/05/20 21:05:55;;;;;;;28.00;17.30;;;;;;;20.19;56.19;98257.17;432581;1269;109074;-45
2022/05/20 21:16:02;;;;;;;25.00;14.40;;;;;;;20.23;56.32;98240.21;432670;1269;97933;-48
2022/05/20 21:26:10;;;;;;;20.80;12.70;;;;;;;20.05;56.74;98202.98;432576;1271;111096;-43
2022/05/20 21:36:17;;;;;;;15.40;11.30;;;;;;;19.89;57.31;98176.81;432766;1269;108817;-48
2022/05/20 21:56:49;;;;;;;12.50;6.80;;;;;;;19.83;57.90;98145.66;432725;1269;111284;-42
2022/05/20 22:17:21;;;;;;;10.20;4.80;;;;;;;20.56;58.13;98088.55;432693;1269;96680;-42
2022/05/20 22:27:30;;;;;;;7.70;4.90;;;;;;;20.86;57.66;98055.27;432539;1271;108944;-46
2022/05/20 22:37:37;;;;;;;12.20;5.00;;;;;;;21.10;57.11;98009.88;432702;1270;98014;-50
2022/05/20 22:47:44;;;;;;;15.50;6.50;;;;;;;21.38;56.40;97991.98;432558;1270;390409;-44
2022/05/20 22:57:51;;;;;;;22.20;6.20;;;;;;;21.58;56.07;97997.79;432993;1270;109144;-42
2022/05/20 23:07:59;;;;;;;10.80;5.60;;;;;;;21.36;56.38;98009.77;432785;1269;96594;-46
2022/05/20 23:28:13;;;;;;;12.40;4.50;;;;;;;20.61;58.81;98038.85;432578;1270;97549;-47
2022/05/20 23:38:21;;;;;;;10.80;4.80;;;;;;;20.35;59.81;98031.02;432807;1271;111126;-47
2022/05/20 23:48:27;;;;;;;;;;;;;;;20.09;60.37;98017.02;432706;1269;109164;-44
2022/05/20 23:58:34;;;;;;;10.30;4.50;;;;;;;19.97;60.83;97972.23;432755;1271;97928;-42
